sensor_id;sensor_type;location;lat;lon;timestamp;P1;durP1;ratioP1;P2;durP2;ratioP2
434;SDS011;204;48.942;9.256;2024-02-15T00:00:11;7.28;;;4.15;;
434;SDS011;204;48.942;9.256;2024-02-15T00:02:37;5.90;;;4.65;;
434;SDS011;204;48.942;9.256;2024-02-15T00:05:03;4.67;;;4.33;;
434;SDS011;204;48.942;9.256;2024-02-15T00:07:29;6.30;;;4.30;;
434;SDS011;204;48.942;9.256;2024-02-15T00:09:55;5.93;;;4.20;;
434;SDS011;204;48.942;9.256;2024-02-15T00:12:20;5.13;;;4.53;;
434;SDS011;204;48.942;9.256;2024-02-15T00:14:46;5.30;;;4.50;;
434;SDS011;204;48.942;9.256;2024-02-15T00:17:12;6.33;;;4.63;;
434;SDS011;204;48.942;9.256;2024-02-15T00:19:38;3.50;;;3.30;;
434;SDS011;204;48.942;9.256;2024-02-15T00:22:06;4.00;;;3.80;;
434;SDS011;204;48.942;9.256;2024-02-15T00:24:32;5.53;;;3.30;;
434;SDS011;204;48.942;9.256;2024-02-15T00:26:58;5.10;;;4.10;;
434;SDS011;204;48.942;9.256;2024-02-15T00:29:23;5.00;;;3.90;;
434;SDS011;204;48.942;9.256;2024-02-15T00:31:51;5.85;;;3.65;;
434;SDS011;204;48.942;9.256;2024-02-15T00:34:16;4.67;;;3.47;;
434;SDS011;204;48.942;9.256;2024-02-15T00:36:43;3.70;;;3.45;;
434;SDS011;204;48.942;9.256;2024-02-15T00:39:09;4.18;;;3.70;;
434;SDS011;204;48.942;9.256;2024-02-15T00:41:36;3.75;;;3.55;;
434;SDS011;204;48.942;9.256;2024-02-15T00:44:02;7.80;;;4.00;;
434;SDS011;204;48.942;9.256;2024-02-15T00:46:28;5.45;;;3.78;;
434;SDS011;204;48.942;9.256;2024-02-15T00:48:54;3.50;;;3.30;;
434;SDS011;204;48.942;9.256;2024-02-15T00:51:20;3.80;;;3.05;;
434;SDS011;204;48.942;9.256;2024-02-15T00:53:46;4.83;;;3.50;;
434;SDS011;204;48.942;9.256;2024-02-15T00:56:11;5.23;;;3.00;;
434;SDS011;204;48.942;9.256;2024-02-15T00:58:37;3.43;;;3.30;;
434;SDS011;204;48.942;9.256;2024-02-15T01:01:03;5.77;;;4.07;;
434;SDS011;204;48.942;9.256;2024-02-15T01:03:28;4.80;;;3.60;;
434;SDS011;204;48.942;9.256;2024-02-15T01:05:54;3.40;;;3.17;;
434;SDS011;204;48.942;9.256;2024-02-15T01:08:19;4.67;;;3.10;;
434;SDS011;204;48.942;9.256;2024-02-15T01:10:45;4.37;;;2.90;;
434;SDS011;204;48.942;9.256;2024-02-15T01:13:11;2.97;;;2.77;;
434;SDS011;204;48.942;9.256;2024-02-15T01:15:37;4.10;;;3.33;;
434;SDS011;204;48.942;9.256;2024-02-15T01:18:04;4.18;;;2.90;;
434;SDS011;204;48.942;9.256;2024-02-15T01:20:29;3.97;;;3.20;;
434;SDS011;204;48.942;9.256;2024-02-15T01:22:55;3.57;;;3.20;;
434;SDS011;204;48.942;9.256;2024-02-15T01:25:21;2.80;;;2.60;;
434;SDS011;204;48.942;9.256;2024-02-15T01:27:47;3.17;;;2.93;;
434;SDS011;204;48.942;9.256;2024-02-15T01:30:13;4.50;;;3.10;;
434;SDS011;204;48.942;9.256;2024-02-15T01:32:38;3.83;;;2.60;;
434;SDS011;204;48.942;9.256;2024-02-15T01:35:07;5.22;;;3.40;;
434;SDS011;204;48.942;9.256;2024-02-15T01:37:33;4.70;;;3.13;;
434;SDS011;204;48.942;9.256;2024-02-15T01:39:58;4.37;;;3.00;;
434;SDS011;204;48.942;9.256;2024-02-15T01:42:24;3.70;;;3.07;;
434;SDS011;204;48.942;9.256;2024-02-15T01:44:49;4.83;;;3.00;;
434;SDS011;204;48.942;9.256;2024-02-15T01:47:16;6.03;;;3.58;;
434;SDS011;204;48.942;9.256;2024-02-15T01:49:44;4.38;;;3.20;;
434;SDS011;204;48.942;9.256;2024-02-15T01:52:10;3.93;;;3.70;;
434;SDS011;204;48.942;9.256;2024-02-15T01:54:38;5.95;;;3.75;;
434;SDS011;204;48.942;9.256;2024-02-15T01:57:04;3.87;;;3.67;;
434;SDS011;204;48.942;9.256;2024-02-15T01:59:30;5.10;;;4.05;;
434;SDS011;204;48.942;9.256;2024-02-15T02:01:56;3.80;;;3.60;;
434;SDS011;204;48.942;9.256;2024-02-15T02:04:22;4.77;;;4.47;;
434;SDS011;204;48.942;9.256;2024-02-15T02:06:47;4.07;;;3.90;;
434;SDS011;204;48.942;9.256;2024-02-15T02:09:13;4.50;;;4.20;;
434;SDS011;204;48.942;9.256;2024-02-15T02:11:39;5.05;;;4.80;;
434;SDS011;204;48.942;9.256;2024-02-15T02:14:06;4.70;;;4.05;;
434;SDS011;204;48.942;9.256;2024-02-15T02:16:32;5.10;;;4.37;;
434;SDS011;204;48.942;9.256;2024-02-15T02:18:58;5.87;;;5.17;;
434;SDS011;204;48.942;9.256;2024-02-15T02:21:27;7.15;;;5.20;;
434;SDS011;204;48.942;9.256;2024-02-15T02:23:57;3.95;;;3.75;;
434;SDS011;204;48.942;9.256;2024-02-15T02:26:24;5.30;;;4.78;;
434;SDS011;204;48.942;9.256;2024-02-15T02:28:50;4.53;;;4.22;;
434;SDS011;204;48.942;9.256;2024-02-15T02:31:18;4.30;;;3.25;;
434;SDS011;204;48.942;9.256;2024-02-15T02:33:49;5.75;;;3.60;;
434;SDS011;204;48.942;9.256;2024-02-15T02:36:19;4.70;;;4.32;;
434;SDS011;204;48.942;9.256;2024-02-15T02:38:45;3.97;;;3.78;;
434;SDS011;204;48.942;9.256;2024-02-15T02:41:14;4.95;;;3.65;;
434;SDS011;204;48.942;9.256;2024-02-15T02:43:40;6.00;;;3.97;;
434;SDS011;204;48.942;9.256;2024-02-15T02:46:06;5.43;;;4.13;;
434;SDS011;204;48.942;9.256;2024-02-15T02:48:35;5.60;;;4.88;;
434;SDS011;204;48.942;9.256;2024-02-15T02:51:01;4.83;;;3.97;;
434;SDS011;204;48.942;9.256;2024-02-15T02:53:27;4.30;;;3.70;;
434;SDS011;204;48.942;9.256;2024-02-15T02:55:53;4.50;;;4.20;;
434;SDS011;204;48.942;9.256;2024-02-15T02:58:21;4.80;;;4.47;;
434;SDS011;204;48.942;9.256;2024-02-15T03:00:47;6.07;;;4.25;;
434;SDS011;204;48.942;9.256;2024-02-15T03:03:14;7.43;;;4.35;;
434;SDS011;204;48.942;9.256;2024-02-15T03:05:40;5.63;;;4.20;;
434;SDS011;204;48.942;9.256;2024-02-15T03:08:06;5.37;;;4.17;;
434;SDS011;204;48.942;9.256;2024-02-15T03:10:37;7.38;;;4.22;;
434;SDS011;204;48.942;9.256;2024-02-15T03:13:03;6.27;;;4.53;;
434;SDS011;204;48.942;9.256;2024-02-15T03:15:30;4.82;;;4.03;;
434;SDS011;204;48.942;9.256;2024-02-15T03:17:58;5.95;;;5.07;;
434;SDS011;204;48.942;9.256;2024-02-15T03:20:24;5.47;;;4.15;;
434;SDS011;204;48.942;9.256;2024-02-15T03:22:50;5.13;;;4.00;;
434;SDS011;204;48.942;9.256;2024-02-15T03:25:20;6.05;;;4.75;;
434;SDS011;204;48.942;9.256;2024-02-15T03:27:48;4.75;;;4.45;;
434;SDS011;204;48.942;9.256;2024-02-15T03:30:16;7.00;;;5.03;;
434;SDS011;204;48.942;9.256;2024-02-15T03:32:44;6.15;;;4.50;;
434;SDS011;204;48.942;9.256;2024-02-15T03:35:10;5.80;;;5.60;;
434;SDS011;204;48.942;9.256;2024-02-15T03:37:39;6.40;;;5.47;;
434;SDS011;204;48.942;9.256;2024-02-15T03:40:05;6.03;;;5.50;;
434;SDS011;204;48.942;9.256;2024-02-15T03:42:31;5.97;;;5.63;;
434;SDS011;204;48.942;9.256;2024-02-15T03:44:56;5.80;;;5.50;;
434;SDS011;204;48.942;9.256;2024-02-15T03:47:22;8.73;;;5.87;;
434;SDS011;204;48.942;9.256;2024-02-15T03:49:48;6.25;;;5.72;;
434;SDS011;204;48.942;9.256;2024-02-15T03:52:14;9.10;;;5.20;;
434;SDS011;204;48.942;9.256;2024-02-15T03:54:40;5.33;;;4.73;;
434;SDS011;204;48.942;9.256;2024-02-15T03:57:08;6.05;;;4.60;;
434;SDS011;204;48.942;9.256;2024-02-15T03:59:33;5.80;;;5.10;;
434;SDS011;204;48.942;9.256;2024-02-15T04:02:00;5.75;;;4.22;;
434;SDS011;204;48.942;9.256;2024-02-15T04:04:28;5.68;;;3.80;;
434;SDS011;204;48.942;9.256;2024-02-15T04:06:55;5.57;;;5.07;;
434;SDS011;204;48.942;9.256;2024-02-15T04:09:21;5.63;;;5.33;;
434;SDS011;204;48.942;9.256;2024-02-15T04:11:47;7.17;;;5.17;;
434;SDS011;204;48.942;9.256;2024-02-15T04:14:17;5.18;;;4.88;;
434;SDS011;204;48.942;9.256;2024-02-15T04:16:43;6.23;;;5.77;;
434;SDS011;204;48.942;9.256;2024-02-15T04:19:10;4.85;;;4.55;;
434;SDS011;204;48.942;9.256;2024-02-15T04:21:36;5.35;;;4.95;;
434;SDS011;204;48.942;9.256;2024-02-15T04:24:01;5.77;;;5.47;;
434;SDS011;204;48.942;9.256;2024-02-15T04:26:27;8.50;;;8.03;;
434;SDS011;204;48.942;9.256;2024-02-15T04:28:55;14.38;;;11.90;;
434;SDS011;204;48.942;9.256;2024-02-15T04:31:21;12.18;;;11.13;;
434;SDS011;204;48.942;9.256;2024-02-15T04:33:51;8.75;;;8.25;;
434;SDS011;204;48.942;9.256;2024-02-15T04:36:17;10.20;;;9.70;;
434;SDS011;204;48.942;9.256;2024-02-15T04:38:48;11.30;;;10.70;;
434;SDS011;204;48.942;9.256;2024-02-15T04:41:19;11.20;;;10.60;;
434;SDS011;204;48.942;9.256;2024-02-15T04:43:46;12.25;;;10.90;;
434;SDS011;204;48.942;9.256;2024-02-15T04:46:12;10.70;;;10.07;;
434;SDS011;204;48.942;9.256;2024-02-15T04:48:39;9.35;;;8.65;;
434;SDS011;204;48.942;9.256;2024-02-15T04:51:06;7.57;;;7.13;;
434;SDS011;204;48.942;9.256;2024-02-15T04:53:32;6.40;;;6.00;;
434;SDS011;204;48.942;9.256;2024-02-15T04:55:58;8.50;;;7.83;;
434;SDS011;204;48.942;9.256;2024-02-15T04:58:26;7.90;;;6.93;;
434;SDS011;204;48.942;9.256;2024-02-15T05:00:53;6.78;;;6.38;;
434;SDS011;204;48.942;9.256;2024-02-15T05:03:23;9.45;;;8.95;;
434;SDS011;204;48.942;9.256;2024-02-15T05:05:49;8.90;;;8.40;;
434;SDS011;204;48.942;9.256;2024-02-15T05:08:15;11.63;;;11.03;;
434;SDS011;204;48.942;9.256;2024-02-15T05:10:41;12.23;;;11.63;;
434;SDS011;204;48.942;9.256;2024-02-15T05:13:06;10.70;;;10.10;;
434;SDS011;204;48.942;9.256;2024-02-15T05:15:33;11.05;;;10.30;;
434;SDS011;204;48.942;9.256;2024-02-15T05:17:58;11.37;;;10.10;;
434;SDS011;204;48.942;9.256;2024-02-15T05:20:26;10.00;;;9.32;;
434;SDS011;204;48.942;9.256;2024-02-15T05:22:52;10.17;;;9.67;;
434;SDS011;204;48.942;9.256;2024-02-15T05:25:19;11.00;;;9.90;;
434;SDS011;204;48.942;9.256;2024-02-15T05:27:48;14.23;;;12.85;;
434;SDS011;204;48.942;9.256;2024-02-15T05:30:13;12.90;;;12.20;;
434;SDS011;204;48.942;9.256;2024-02-15T05:32:40;11.50;;;10.90;;
434;SDS011;204;48.942;9.256;2024-02-15T05:35:10;13.65;;;11.10;;
434;SDS011;204;48.942;9.256;2024-02-15T05:37:37;13.88;;;12.10;;
434;SDS011;204;48.942;9.256;2024-02-15T05:40:03;13.63;;;12.57;;
434;SDS011;204;48.942;9.256;2024-02-15T05:42:29;11.40;;;10.05;;
434;SDS011;204;48.942;9.256;2024-02-15T05:44:55;13.40;;;11.07;;
434;SDS011;204;48.942;9.256;2024-02-15T05:47:39;10.93;;;10.35;;
434;SDS011;204;48.942;9.256;2024-02-15T05:50:05;11.80;;;9.70;;
434;SDS011;204;48.942;9.256;2024-02-15T05:52:32;11.98;;;10.45;;
434;SDS011;204;48.942;9.256;2024-02-15T05:54:57;10.53;;;8.40;;
434;SDS011;204;48.942;9.256;2024-02-15T05:57:23;10.00;;;7.40;;
434;SDS011;204;48.942;9.256;2024-02-15T05:59:48;6.37;;;6.00;;
434;SDS011;204;48.942;9.256;2024-02-15T06:02:14;9.40;;;7.00;;
434;SDS011;204;48.942;9.256;2024-02-15T06:04:40;7.35;;;6.40;;
434;SDS011;204;48.942;9.256;2024-02-15T06:07:06;6.90;;;6.00;;
434;SDS011;204;48.942;9.256;2024-02-15T06:09:34;7.20;;;5.25;;
434;SDS011;204;48.942;9.256;2024-02-15T06:12:02;7.60;;;4.90;;
434;SDS011;204;48.942;9.256;2024-02-15T06:14:27;7.97;;;5.10;;
434;SDS011;204;48.942;9.256;2024-02-15T06:16:53;5.10;;;4.20;;
434;SDS011;204;48.942;9.256;2024-02-15T06:19:20;5.60;;;4.30;;
434;SDS011;204;48.942;9.256;2024-02-15T06:21:46;5.93;;;4.22;;
434;SDS011;204;48.942;9.256;2024-02-15T06:24:12;5.37;;;4.90;;
434;SDS011;204;48.942;9.256;2024-02-15T06:26:39;9.23;;;4.70;;
434;SDS011;204;48.942;9.256;2024-02-15T06:29:04;8.30;;;5.63;;
434;SDS011;204;48.942;9.256;2024-02-15T06:31:49;8.15;;;5.10;;
434;SDS011;204;48.942;9.256;2024-02-15T06:34:37;5.45;;;3.92;;
434;SDS011;204;48.942;9.256;2024-02-15T06:37:38;4.95;;;3.95;;
434;SDS011;204;48.942;9.256;2024-02-15T06:40:22;5.35;;;3.90;;
434;SDS011;204;48.942;9.256;2024-02-15T06:42:48;3.85;;;3.65;;
434;SDS011;204;48.942;9.256;2024-02-15T06:45:14;5.40;;;4.57;;
434;SDS011;204;48.942;9.256;2024-02-15T06:47:43;8.90;;;4.20;;
434;SDS011;204;48.942;9.256;2024-02-15T06:50:10;5.22;;;4.35;;
434;SDS011;204;48.942;9.256;2024-02-15T06:52:36;7.10;;;5.28;;
434;SDS011;204;48.942;9.256;2024-02-15T06:55:03;6.70;;;4.38;;
434;SDS011;204;48.942;9.256;2024-02-15T06:57:32;5.82;;;4.30;;
434;SDS011;204;48.942;9.256;2024-02-15T07:00:00;7.18;;;5.40;;
434;SDS011;204;48.942;9.256;2024-02-15T07:02:33;5.15;;;4.30;;
434;SDS011;204;48.942;9.256;2024-02-15T07:04:58;6.90;;;3.90;;
434;SDS011;204;48.942;9.256;2024-02-15T07:07:24;3.73;;;3.10;;
434;SDS011;204;48.942;9.256;2024-02-15T07:09:50;5.53;;;2.70;;
434;SDS011;204;48.942;9.256;2024-02-15T07:12:16;4.87;;;2.47;;
434;SDS011;204;48.942;9.256;2024-02-15T07:14:41;6.10;;;3.37;;
434;SDS011;204;48.942;9.256;2024-02-15T07:17:08;5.00;;;2.28;;
434;SDS011;204;48.942;9.256;2024-02-15T07:19:34;4.73;;;2.50;;
434;SDS011;204;48.942;9.256;2024-02-15T07:22:01;5.43;;;3.67;;
434;SDS011;204;48.942;9.256;2024-02-15T07:24:27;4.63;;;4.18;;
434;SDS011;204;48.942;9.256;2024-02-15T07:26:53;4.33;;;3.77;;
434;SDS011;204;48.942;9.256;2024-02-15T07:29:20;2.60;;;2.35;;
434;SDS011;204;48.942;9.256;2024-02-15T07:31:48;5.32;;;2.50;;
434;SDS011;204;48.942;9.256;2024-02-15T07:34:14;2.03;;;1.90;;
434;SDS011;204;48.942;9.256;2024-02-15T07:36:41;2.60;;;2.27;;
434;SDS011;204;48.942;9.256;2024-02-15T07:39:08;3.45;;;2.25;;
434;SDS011;204;48.942;9.256;2024-02-15T07:41:37;4.63;;;2.35;;
434;SDS011;204;48.942;9.256;2024-02-15T07:44:03;2.67;;;2.47;;
434;SDS011;204;48.942;9.256;2024-02-15T07:46:29;2.73;;;1.87;;
434;SDS011;204;48.942;9.256;2024-02-15T07:48:54;3.57;;;2.37;;
434;SDS011;204;48.942;9.256;2024-02-15T07:51:21;4.37;;;2.77;;
434;SDS011;204;48.942;9.256;2024-02-15T07:53:48;3.63;;;2.80;;
434;SDS011;204;48.942;9.256;2024-02-15T07:56:14;4.82;;;4.25;;
434;SDS011;204;48.942;9.256;2024-02-15T07:58:44;5.35;;;2.75;;
434;SDS011;204;48.942;9.256;2024-02-15T08:01:16;2.67;;;2.50;;
434;SDS011;204;48.942;9.256;2024-02-15T08:03:42;5.40;;;2.40;;
434;SDS011;204;48.942;9.256;2024-02-15T08:06:10;20.60;;;16.58;;
434;SDS011;204;48.942;9.256;2024-02-15T08:08:37;4.40;;;3.08;;
434;SDS011;204;48.942;9.256;2024-02-15T08:11:06;3.88;;;3.70;;
434;SDS011;204;48.942;9.256;2024-02-15T08:13:39;2.92;;;2.10;;
434;SDS011;204;48.942;9.256;2024-02-15T08:16:16;4.65;;;3.00;;
434;SDS011;204;48.942;9.256;2024-02-15T08:18:42;1.92;;;1.85;;
434;SDS011;204;48.942;9.256;2024-02-15T08:21:11;4.97;;;2.97;;
434;SDS011;204;48.942;9.256;2024-02-15T08:23:37;3.53;;;3.17;;
434;SDS011;204;48.942;9.256;2024-02-15T08:26:03;4.43;;;4.13;;
434;SDS011;204;48.942;9.256;2024-02-15T08:28:29;2.97;;;2.40;;
434;SDS011;204;48.942;9.256;2024-02-15T08:30:55;3.50;;;2.00;;
434;SDS011;204;48.942;9.256;2024-02-15T08:33:24;3.25;;;2.38;;
434;SDS011;204;48.942;9.256;2024-02-15T08:35:53;3.30;;;2.22;;
434;SDS011;204;48.942;9.256;2024-02-15T08:38:20;2.60;;;1.77;;
434;SDS011;204;48.942;9.256;2024-02-15T08:40:46;4.03;;;2.20;;
434;SDS011;204;48.942;9.256;2024-02-15T08:43:12;2.50;;;2.03;;
434;SDS011;204;48.942;9.256;2024-02-15T08:45:39;3.60;;;1.90;;
434;SDS011;204;48.942;9.256;2024-02-15T08:48:05;4.30;;;1.90;;
434;SDS011;204;48.942;9.256;2024-02-15T08:50:30;2.47;;;2.00;;
434;SDS011;204;48.942;9.256;2024-02-15T08:52:56;2.40;;;1.80;;
434;SDS011;204;48.942;9.256;2024-02-15T08:55:22;3.10;;;1.60;;
434;SDS011;204;48.942;9.256;2024-02-15T08:57:52;3.70;;;1.50;;
434;SDS011;204;48.942;9.256;2024-02-15T09:00:19;2.00;;;1.20;;
434;SDS011;204;48.942;9.256;2024-02-15T09:02:45;2.70;;;2.03;;
434;SDS011;204;48.942;9.256;2024-02-15T09:05:12;2.40;;;2.20;;
434;SDS011;204;48.942;9.256;2024-02-15T09:07:42;1.80;;;1.70;;
434;SDS011;204;48.942;9.256;2024-02-15T09:10:11;3.33;;;1.88;;
434;SDS011;204;48.942;9.256;2024-02-15T09:12:37;2.97;;;2.10;;
434;SDS011;204;48.942;9.256;2024-02-15T09:15:05;5.45;;;2.35;;
434;SDS011;204;48.942;9.256;2024-02-15T09:17:37;2.97;;;2.03;;
434;SDS011;204;48.942;9.256;2024-02-15T09:20:06;3.30;;;1.60;;
434;SDS011;204;48.942;9.256;2024-02-15T09:22:34;2.25;;;1.65;;
434;SDS011;204;48.942;9.256;2024-02-15T09:25:01;5.72;;;1.65;;
434;SDS011;204;48.942;9.256;2024-02-15T09:27:27;6.82;;;3.53;;
434;SDS011;204;48.942;9.256;2024-02-15T09:29:53;3.70;;;1.50;;
434;SDS011;204;48.942;9.256;2024-02-15T09:32:20;2.85;;;2.10;;
434;SDS011;204;48.942;9.256;2024-02-15T09:34:47;1.67;;;1.50;;
434;SDS011;204;48.942;9.256;2024-02-15T09:37:13;2.45;;;1.55;;
434;SDS011;204;48.942;9.256;2024-02-15T09:39:39;1.88;;;1.65;;
434;SDS011;204;48.942;9.256;2024-02-15T09:42:04;1.83;;;1.73;;
434;SDS011;204;48.942;9.256;2024-02-15T09:44:30;3.63;;;1.77;;
434;SDS011;204;48.942;9.256;2024-02-15T09:47:03;4.43;;;2.13;;
434;SDS011;204;48.942;9.256;2024-02-15T09:49:34;4.65;;;1.90;;
434;SDS011;204;48.942;9.256;2024-02-15T09:52:02;4.00;;;2.28;;
434;SDS011;204;48.942;9.256;2024-02-15T09:54:29;3.50;;;2.10;;
434;SDS011;204;48.942;9.256;2024-02-15T09:56:55;3.45;;;1.63;;
434;SDS011;204;48.942;9.256;2024-02-15T09:59:25;4.25;;;1.90;;
434;SDS011;204;48.942;9.256;2024-02-15T10:01:51;2.47;;;2.13;;
434;SDS011;204;48.942;9.256;2024-02-15T10:04:19;5.55;;;1.92;;
434;SDS011;204;48.942;9.256;2024-02-15T10:06:45;2.00;;;1.37;;
434;SDS011;204;48.942;9.256;2024-02-15T10:09:23;3.87;;;2.30;;
434;SDS011;204;48.942;9.256;2024-02-15T10:11:54;3.05;;;1.80;;
434;SDS011;204;48.942;9.256;2024-02-15T10:14:24;1.65;;;1.30;;
434;SDS011;204;48.942;9.256;2024-02-15T10:16:54;5.22;;;2.20;;
434;SDS011;204;48.942;9.256;2024-02-15T10:19:20;6.03;;;4.22;;
434;SDS011;204;48.942;9.256;2024-02-15T10:21:52;2.72;;;1.80;;
434;SDS011;204;48.942;9.256;2024-02-15T10:24:21;1.75;;;1.67;;
434;SDS011;204;48.942;9.256;2024-02-15T10:26:49;5.25;;;1.73;;
434;SDS011;204;48.942;9.256;2024-02-15T10:29:15;3.53;;;2.15;;
434;SDS011;204;48.942;9.256;2024-02-15T10:31:52;3.58;;;2.67;;
434;SDS011;204;48.942;9.256;2024-02-15T10:34:19;3.90;;;1.92;;
434;SDS011;204;48.942;9.256;2024-02-15T10:36:45;3.40;;;1.60;;
434;SDS011;204;48.942;9.256;2024-02-15T10:41:41;4.90;;;2.45;;
434;SDS011;204;48.942;9.256;2024-02-15T10:44:09;2.15;;;1.13;;
434;SDS011;204;48.942;9.256;2024-02-15T10:46:38;2.65;;;1.13;;
434;SDS011;204;48.942;9.256;2024-02-15T10:49:05;1.60;;;1.10;;
434;SDS011;204;48.942;9.256;2024-02-15T10:51:30;0.93;;;0.90;;
434;SDS011;204;48.942;9.256;2024-02-15T10:54:01;7.13;;;1.77;;
434;SDS011;204;48.942;9.256;2024-02-15T10:56:33;2.75;;;1.40;;
434;SDS011;204;48.942;9.256;2024-02-15T10:59:16;1.80;;;1.13;;
434;SDS011;204;48.942;9.256;2024-02-15T11:01:43;1.73;;;1.50;;
434;SDS011;204;48.942;9.256;2024-02-15T11:04:15;2.63;;;2.42;;
434;SDS011;204;48.942;9.256;2024-02-15T11:06:47;2.67;;;2.15;;
434;SDS011;204;48.942;9.256;2024-02-15T11:09:15;2.83;;;1.00;;
434;SDS011;204;48.942;9.256;2024-02-15T11:11:42;1.85;;;1.27;;
434;SDS011;204;48.942;9.256;2024-02-15T11:16:59;2.17;;;1.55;;
434;SDS011;204;48.942;9.256;2024-02-15T11:21:57;1.33;;;1.10;;
434;SDS011;204;48.942;9.256;2024-02-15T11:24:29;4.82;;;2.00;;
434;SDS011;204;48.942;9.256;2024-02-15T11:27:01;2.05;;;1.35;;
434;SDS011;204;48.942;9.256;2024-02-15T11:43:08;4.60;;;2.37;;
434;SDS011;204;48.942;9.256;2024-02-15T11:45:36;3.27;;;1.73;;
434;SDS011;204;48.942;9.256;2024-02-15T11:48:09;3.80;;;2.60;;
434;SDS011;204;48.942;9.256;2024-02-15T11:50:36;3.20;;;1.30;;
434;SDS011;204;48.942;9.256;2024-02-15T11:53:03;1.90;;;1.40;;
434;SDS011;204;48.942;9.256;2024-02-15T11:55:36;2.58;;;1.58;;
434;SDS011;204;48.942;9.256;2024-02-15T11:58:05;3.53;;;2.80;;
434;SDS011;204;48.942;9.256;2024-02-15T12:00:32;3.17;;;1.23;;
434;SDS011;204;48.942;9.256;2024-02-15T12:03:17;1.50;;;0.88;;
434;SDS011;204;48.942;9.256;2024-02-15T12:06:02;2.10;;;1.33;;
434;SDS011;204;48.942;9.256;2024-02-15T12:08:47;3.23;;;2.07;;
434;SDS011;204;48.942;9.256;2024-02-15T12:11:32;4.67;;;1.13;;
434;SDS011;204;48.942;9.256;2024-02-15T12:14:17;3.60;;;1.30;;
434;SDS011;204;48.942;9.256;2024-02-15T12:17:02;3.33;;;1.30;;
434;SDS011;204;48.942;9.256;2024-02-15T12:19:48;1.80;;;0.90;;
434;SDS011;204;48.942;9.256;2024-02-15T12:22:16;2.87;;;1.03;;
434;SDS011;204;48.942;9.256;2024-02-15T12:24:45;3.47;;;0.90;;
434;SDS011;204;48.942;9.256;2024-02-15T12:27:18;3.40;;;1.10;;
434;SDS011;204;48.942;9.256;2024-02-15T12:29:45;2.70;;;1.10;;
434;SDS011;204;48.942;9.256;2024-02-15T12:32:26;3.80;;;1.40;;
434;SDS011;204;48.942;9.256;2024-02-15T12:34:53;1.90;;;0.97;;
434;SDS011;204;48.942;9.256;2024-02-15T12:37:35;3.60;;;1.60;;
434;SDS011;204;48.942;9.256;2024-02-15T12:40:09;3.73;;;1.10;;
434;SDS011;204;48.942;9.256;2024-02-15T12:42:38;1.37;;;0.90;;
434;SDS011;204;48.942;9.256;2024-02-15T12:45:04;1.90;;;0.97;;
434;SDS011;204;48.942;9.256;2024-02-15T12:47:32;3.40;;;1.10;;
434;SDS011;204;48.942;9.256;2024-02-15T12:49:58;1.87;;;1.47;;
434;SDS011;204;48.942;9.256;2024-02-15T12:52:39;2.23;;;1.20;;
434;SDS011;204;48.942;9.256;2024-02-15T12:57:37;2.80;;;1.70;;
434;SDS011;204;48.942;9.256;2024-02-15T13:00:08;1.77;;;1.20;;
434;SDS011;204;48.942;9.256;2024-02-15T13:02:42;4.10;;;1.13;;
434;SDS011;204;48.942;9.256;2024-02-15T13:05:15;1.60;;;1.17;;
434;SDS011;204;48.942;9.256;2024-02-15T13:07:48;6.37;;;1.90;;
434;SDS011;204;48.942;9.256;2024-02-15T13:10:14;2.60;;;1.13;;
434;SDS011;204;48.942;9.256;2024-02-15T13:12:41;2.90;;;1.40;;
434;SDS011;204;48.942;9.256;2024-02-15T13:15:08;3.73;;;1.00;;
434;SDS011;204;48.942;9.256;2024-02-15T13:17:39;2.83;;;1.00;;
434;SDS011;204;48.942;9.256;2024-02-15T13:20:13;5.90;;;1.97;;
434;SDS011;204;48.942;9.256;2024-02-15T13:22:40;1.13;;;1.10;;
434;SDS011;204;48.942;9.256;2024-02-15T13:25:08;1.83;;;1.10;;
434;SDS011;204;48.942;9.256;2024-02-15T13:27:35;5.17;;;1.70;;
434;SDS011;204;48.942;9.256;2024-02-15T13:30:03;1.73;;;1.27;;
434;SDS011;204;48.942;9.256;2024-02-15T13:32:37;1.70;;;1.17;;
434;SDS011;204;48.942;9.256;2024-02-15T13:35:04;2.70;;;1.20;;
434;SDS011;204;48.942;9.256;2024-02-15T13:37:38;2.40;;;1.00;;
434;SDS011;204;48.942;9.256;2024-02-15T13:40:08;3.23;;;1.13;;
434;SDS011;204;48.942;9.256;2024-02-15T13:42:43;1.83;;;1.37;;
434;SDS011;204;48.942;9.256;2024-02-15T13:47:45;1.37;;;1.00;;
434;SDS011;204;48.942;9.256;2024-02-15T13:50:12;2.80;;;1.10;;
434;SDS011;204;48.942;9.256;2024-02-15T13:52:40;2.40;;;1.07;;
434;SDS011;204;48.942;9.256;2024-02-15T13:55:08;1.67;;;1.13;;
434;SDS011;204;48.942;9.256;2024-02-15T13:57:38;1.53;;;1.30;;
434;SDS011;204;48.942;9.256;2024-02-15T14:00:09;3.53;;;1.60;;
434;SDS011;204;48.942;9.256;2024-02-15T14:02:42;2.97;;;1.23;;
434;SDS011;204;48.942;9.256;2024-02-15T14:05:08;2.10;;;1.20;;
434;SDS011;204;48.942;9.256;2024-02-15T14:07:37;4.13;;;1.10;;
434;SDS011;204;48.942;9.256;2024-02-15T14:10:06;6.30;;;1.40;;
434;SDS011;204;48.942;9.256;2024-02-15T14:12:33;1.20;;;0.90;;
434;SDS011;204;48.942;9.256;2024-02-15T14:14:59;3.63;;;1.57;;
434;SDS011;204;48.942;9.256;2024-02-15T14:17:25;2.47;;;0.90;;
434;SDS011;204;48.942;9.256;2024-02-15T14:19:50;3.43;;;1.50;;
434;SDS011;204;48.942;9.256;2024-02-15T14:22:16;1.90;;;1.10;;
434;SDS011;204;48.942;9.256;2024-02-15T14:24:42;2.50;;;1.20;;
434;SDS011;204;48.942;9.256;2024-02-15T14:27:11;2.70;;;1.60;;
434;SDS011;204;48.942;9.256;2024-02-15T14:29:37;5.40;;;1.13;;
434;SDS011;204;48.942;9.256;2024-02-15T14:32:10;3.43;;;1.20;;
434;SDS011;204;48.942;9.256;2024-02-15T14:34:54;2.63;;;1.50;;
434;SDS011;204;48.942;9.256;2024-02-15T14:37:21;3.53;;;1.93;;
434;SDS011;204;48.942;9.256;2024-02-15T14:39:47;4.67;;;1.70;;
434;SDS011;204;48.942;9.256;2024-02-15T14:42:12;1.80;;;1.30;;
434;SDS011;204;48.942;9.256;2024-02-15T14:44:39;2.43;;;1.30;;
434;SDS011;204;48.942;9.256;2024-02-15T14:47:04;6.10;;;1.40;;
434;SDS011;204;48.942;9.256;2024-02-15T14:49:30;2.73;;;1.77;;
434;SDS011;204;48.942;9.256;2024-02-15T14:51:56;2.80;;;1.40;;
434;SDS011;204;48.942;9.256;2024-02-15T14:54:22;3.43;;;1.57;;
434;SDS011;204;48.942;9.256;2024-02-15T14:56:47;3.93;;;1.20;;
434;SDS011;204;48.942;9.256;2024-02-15T14:59:13;2.37;;;1.30;;
434;SDS011;204;48.942;9.256;2024-02-15T15:01:40;2.40;;;1.63;;
434;SDS011;204;48.942;9.256;2024-02-15T15:04:05;1.70;;;1.40;;
434;SDS011;204;48.942;9.256;2024-02-15T15:06:33;3.10;;;1.40;;
434;SDS011;204;48.942;9.256;2024-02-15T15:09:17;4.07;;;1.60;;
434;SDS011;204;48.942;9.256;2024-02-15T15:12:01;3.53;;;1.93;;
434;SDS011;204;48.942;9.256;2024-02-15T15:14:45;5.23;;;1.50;;
434;SDS011;204;48.942;9.256;2024-02-15T15:17:11;2.90;;;1.50;;
434;SDS011;204;48.942;9.256;2024-02-15T15:19:37;2.07;;;1.37;;
434;SDS011;204;48.942;9.256;2024-02-15T15:22:03;4.90;;;1.17;;
434;SDS011;204;48.942;9.256;2024-02-15T15:24:30;2.57;;;1.40;;
434;SDS011;204;48.942;9.256;2024-02-15T15:26:57;4.83;;;0.97;;
434;SDS011;204;48.942;9.256;2024-02-15T15:29:24;2.20;;;1.33;;
434;SDS011;204;48.942;9.256;2024-02-15T15:31:50;2.20;;;1.27;;
434;SDS011;204;48.942;9.256;2024-02-15T15:34:16;1.60;;;1.17;;
434;SDS011;204;48.942;9.256;2024-02-15T15:36:44;2.10;;;1.27;;
434;SDS011;204;48.942;9.256;2024-02-15T15:39:12;2.07;;;1.03;;
434;SDS011;204;48.942;9.256;2024-02-15T15:41:37;1.97;;;1.10;;
434;SDS011;204;48.942;9.256;2024-02-15T15:44:03;3.63;;;1.73;;
434;SDS011;204;48.942;9.256;2024-02-15T15:46:29;2.27;;;1.60;;
434;SDS011;204;48.942;9.256;2024-02-15T15:48:58;2.70;;;1.40;;
434;SDS011;204;48.942;9.256;2024-02-15T15:51:24;1.63;;;1.60;;
434;SDS011;204;48.942;9.256;2024-02-15T15:53:51;3.17;;;1.37;;
434;SDS011;204;48.942;9.256;2024-02-15T15:56:16;1.40;;;1.30;;
434;SDS011;204;48.942;9.256;2024-02-15T15:58:43;5.93;;;2.10;;
434;SDS011;204;48.942;9.256;2024-02-15T16:01:13;25.40;;;17.37;;
434;SDS011;204;48.942;9.256;2024-02-15T16:03:38;7.07;;;5.97;;
434;SDS011;204;48.942;9.256;2024-02-15T16:06:05;6.20;;;3.57;;
434;SDS011;204;48.942;9.256;2024-02-15T16:08:32;4.33;;;2.47;;
434;SDS011;204;48.942;9.256;2024-02-15T16:10:59;4.13;;;2.80;;
434;SDS011;204;48.942;9.256;2024-02-15T16:13:24;7.37;;;3.80;;